Meteo Giornale » Osservazioni meteo Svizzera » Locarno

ore: 00:50 - Osservazioni Meteo Locarno
Lat. 46° 10' N Lon. 8° 53' E Alt. 600 metri s.l.m.

nebbia Europe/Zurich

5 °C

Nebbia

Temp. 24 Ore

5 °C

15 °C

Nord

0 Km/h

Dew point 5 °C

Umidità 100 %

Visibilità  0.5 Km

Il sole sorge alle ore 07:24

Il sole tramonta alle ore 16:53

Data e Ora Cielo e Fenomeni T °C DP °C Um. % Pres. hPa Vis. km Vento km/h
Oggi h: 00:50 nebbia Nebbia 5 5 100 1028 0.5 N 0
Oggi h: 00:20 nebbia Banco di Nebbia 6 6 100 1028 1 N 0
Ieri h: 23:50 nebbia Banco di Nebbia 6 6 100 1028 0.75 N 0
Ieri h: 23:20 nuvoloso_piovaschi Debole Rovescio di Pioggia Banco di Nebbia 6 6 100 1028 3 N 0
Ieri h: 22:50 nebbia Banco di Nebbia 6 6 100 1028 10 N 0
Ieri h: 22:20 nebbia Nebbia 7 6 93 1028 0.7 N 0
Ieri h: 21:50 foschia Foschia 7 7 100 1028 10 N 1.8
Ieri h: 21:20 poco_nuvoloso Poco Nuvoloso 7 7 100 1028 10 N 0
Ieri h: 20:50 foschia Foschia 7 7 100 1028 5 N 0
Ieri h: 20:20 sereno Sereno 8 8 100 1027 10 N 0
Ieri h: 19:50 sereno Sereno 8 8 100 1027 10 N 0
Ieri h: 19:20 sereno Sereno 8 8 100 1027 10 N 0
Ieri h: 18:50 sereno Sereno 9 8 93 1027 10 N 1.8
Ieri h: 18:20 sereno Sereno 10 9 93 1027 10 N 0
Ieri h: 17:50 sereno Sereno 10 8 87 1027 10 N 0
Ieri h: 17:20 sereno Sereno 11 9 87 1027 10 N 0
Ieri h: 16:50 poco_nuvoloso Poco Nuvoloso 12 9 81 1027 10 N 0
Ieri h: 16:20 poco_nuvoloso Poco Nuvoloso 14 9 71 1027 10 N 1.8
Ieri h: 15:50 poco_nuvoloso Poco Nuvoloso 15 9 67 1027 10 N 3.7
Ieri h: 15:20 poco_nuvoloso Poco Nuvoloso 15 9 67 1027 10 N 3.7
Ieri h: 14:50 poco_nuvoloso Poco Nuvoloso 15 9 67 1027 10 N 5.5
Ieri h: 14:20 poco_nuvoloso Poco Nuvoloso 14 8 67 1027 10 O/SO 7.4
Ieri h: 13:50 poco_nuvoloso Poco Nuvoloso 14 9 71 1028 10 O/SO 7.4
Ieri h: 13:20 poco_nuvoloso Poco Nuvoloso 14 9 71 1028 10 N 5.5
Ieri h: 12:50 poco_nuvoloso Poco Nuvoloso 15 9 67 1029 10 N 1.8
Ieri h: 11:50 sereno Sereno 13 9 76 1030 10 N 3.7
Ieri h: 11:20 sereno Sereno 13 9 76 1030 10 N 3.7
Ieri h: 10:50 sereno Sereno 12 9 81 1030 10 N 3.7
Ieri h: 10:20 sereno Sereno 11 9 87 1030 10 N 3.7
Ieri h: 09:20 sereno Sereno 8 8 100 1030 10 N 3.7
Ieri h: 08:50 nebbia Nebbia a Strati 7 7 100 1030 10 N 0
Ieri h: 08:20 nebbia Banco di Nebbia 5 5 100 1030 10 N 0
Ieri h: 07:50 nebbia NebbiaParziale 5 5 100 1029 1 N 0
Ieri h: 07:20 sereno Parziale 5 5 100 1029 2 N 0
Ieri h: 06:50 sereno Parziale 5 5 100 1029 2 N 0
Ieri h: 06:20 nuvoloso_piovaschi Debole Rovescio di Pioggia Nebbia 5 5 100 1029 0.7 N 0
Ieri h: 05:50 nebbia Nebbia 5 5 100 1029 0.9 N 0
Ieri h: 05:20 nebbia Nebbia 6 6 100 1029 0.6 N 0
Ieri h: 04:50 nebbia Nebbia 6 6 100 1029 0.6 N 0
Ieri h: 04:20 nebbia Nebbia 6 6 100 1029 0.7 N 1.8
Ieri h: 03:50 nebbia Nebbia 6 5 93 1029 1 N 1.8
Ieri h: 03:20 nebbia Nebbia 6 6 100 1029 0.35 N 0
Ieri h: 01:50 nebbia Nebbia 7 6 93 1029 0.6 N 0
Ieri h: 01:20 nebbia Nebbia 7 7 100 1029 0.5 N 0
Ieri h: 00:50 nebbia Banco di Nebbia 7 7 100 1029 0.65 N 0